createdAt,value
2023-03-17T00:01:51.600Z,69.60
2023-03-17T00:04:19.599Z,69.54
2023-03-17T00:06:46.643Z,70.69
2023-03-17T00:09:15.698Z,70.45
2023-03-17T00:11:43.556Z,71.06
2023-03-17T00:14:11.035Z,71.53
2023-03-17T00:16:41.526Z,72.87
2023-03-17T00:19:16.641Z,72.98
2023-03-17T00:21:43.617Z,72.18
2023-03-17T00:24:13.636Z,73.05
2023-03-17T00:26:42.571Z,72.51
2023-03-17T00:29:09.935Z,72.48
2023-03-17T00:31:38.209Z,72.99
2023-03-17T00:34:05.985Z,72.84
2023-03-17T00:36:34.347Z,74.11
2023-03-17T00:39:02.041Z,73.59
2023-03-17T00:41:29.598Z,73.46
2023-03-17T00:43:57.448Z,74.42
2023-03-17T00:46:36.007Z,74.96
2023-03-17T00:49:11.927Z,76.30
2023-03-17T00:51:39.403Z,75.27
2023-03-17T00:54:06.939Z,76.74
2023-03-17T00:56:33.859Z,76.22
2023-03-17T00:59:01.036Z,77.77
2023-03-17T01:01:27.914Z,76.26
2023-03-17T01:03:55.319Z,75.05
2023-03-17T01:06:22.340Z,76.03
2023-03-17T01:08:49.745Z,75.88
2023-03-17T01:11:19.096Z,77.72
2023-03-17T01:13:46.745Z,76.98
2023-03-17T01:16:15.638Z,76.82
2023-03-17T01:18:43.634Z,77.69
2023-03-17T01:21:10.573Z,77.44
2023-03-17T01:23:37.991Z,78.13
2023-03-17T01:26:05.584Z,77.77
2023-03-17T01:28:32.693Z,77.86
2023-03-17T01:31:02.946Z,77.50
2023-03-17T01:33:30.061Z,77.47
2023-03-17T01:35:56.886Z,77.32
2023-03-17T01:38:24.608Z,76.85
2023-03-17T01:40:52.108Z,76.88
2023-03-17T01:43:28.149Z,77.66
2023-03-17T01:46:20.806Z,76.79
2023-03-17T01:49:06.134Z,77.39
2023-03-17T01:52:01.045Z,76.65
2023-03-17T01:54:42.604Z,77.03
2023-03-17T01:57:16.524Z,77.33
2023-03-17T01:59:50.171Z,77.79
2023-03-17T02:02:22.699Z,78.62
2023-03-17T02:04:52.309Z,77.87
2023-03-17T02:07:20.730Z,77.09
2023-03-17T02:09:48.107Z,77.43
2023-03-17T02:12:16.135Z,76.57
2023-03-17T02:14:44.131Z,78.09
2023-03-17T02:17:10.988Z,79.09
2023-03-17T02:19:38.933Z,77.63
2023-03-17T02:22:05.951Z,77.33
2023-03-17T02:24:37.638Z,77.40
2023-03-17T02:27:11.841Z,77.40
2023-03-17T02:29:39.615Z,78.33
2023-03-17T02:32:06.932Z,78.25
2023-03-17T02:34:34.299Z,77.95
2023-03-17T02:37:01.430Z,79.59
2023-03-17T02:39:28.574Z,79.39
2023-03-17T02:41:55.905Z,79.18
2023-03-17T02:44:23.034Z,78.93
2023-03-17T02:46:49.910Z,78.91
2023-03-17T02:49:17.853Z,79.31
2023-03-17T02:51:45.305Z,79.18
2023-03-17T02:54:12.445Z,79.54
2023-03-17T02:56:39.357Z,80.06
2023-03-17T02:59:07.259Z,79.37
2023-03-17T03:01:34.833Z,79.05
2023-03-17T03:04:02.567Z,78.77
2023-03-17T03:06:29.479Z,81.19
2023-03-17T03:08:56.544Z,80.67
2023-03-17T03:11:23.423Z,80.66
2023-03-17T03:13:51.092Z,80.43
2023-03-17T03:16:18.071Z,81.70
2023-03-17T03:18:45.262Z,80.76
2023-03-17T03:21:12.077Z,80.78
2023-03-17T03:23:39.335Z,80.32
2023-03-17T03:26:06.168Z,82.22
2023-03-17T03:28:33.353Z,82.49
2023-03-17T03:31:00.198Z,84.05
2023-03-17T03:33:28.488Z,83.39
2023-03-17T03:35:55.282Z,81.82
2023-03-17T03:38:22.414Z,81.71
2023-03-17T03:40:49.231Z,82.98
2023-03-17T03:43:23.516Z,83.46
2023-03-17T03:45:51.727Z,83.08
2023-03-17T03:48:18.829Z,82.54
2023-03-17T03:50:45.779Z,82.87
2023-03-17T03:53:13.613Z,83.87
2023-03-17T03:55:40.796Z,83.57
2023-03-17T03:58:08.839Z,83.85
2023-03-17T04:00:35.616Z,84.65
2023-03-17T04:03:02.736Z,85.05
2023-03-17T04:05:29.562Z,85.00
2023-03-17T04:07:56.693Z,85.99
2023-03-17T04:10:23.503Z,84.74
2023-03-17T04:12:50.735Z,85.10
2023-03-17T04:15:19.670Z,86.23
2023-03-17T04:17:47.484Z,86.03
2023-03-17T04:20:16.034Z,85.70
2023-03-17T04:22:43.738Z,86.26
2023-03-17T04:25:14.809Z,86.31
2023-03-17T04:27:42.814Z,85.99
2023-03-17T04:30:13.852Z,87.02
2023-03-17T04:32:41.710Z,87.09
2023-03-17T04:35:13.794Z,87.26
2023-03-17T04:37:41.094Z,87.52
2023-03-17T04:40:12.196Z,87.21
2023-03-17T04:42:39.621Z,87.37
2023-03-17T04:45:09.429Z,88.40
2023-03-17T04:47:36.725Z,87.25
2023-03-17T04:50:04.408Z,87.90
2023-03-17T04:52:31.515Z,88.16
2023-03-17T04:54:58.312Z,88.52
2023-03-17T04:57:25.497Z,88.31
2023-03-17T04:59:52.660Z,88.05
2023-03-17T05:02:19.776Z,88.23
2023-03-17T05:04:47.775Z,88.34
2023-03-17T05:07:15.544Z,89.07
2023-03-17T05:09:42.621Z,89.19
2023-03-17T05:12:10.258Z,90.05
2023-03-17T05:14:37.623Z,89.63
2023-03-17T05:17:04.843Z,89.82
2023-03-17T05:19:31.718Z,90.05
2023-03-17T05:21:58.870Z,90.64
2023-03-17T05:24:25.747Z,90.47
2023-03-17T05:26:52.997Z,90.02
2023-03-17T05:29:20.055Z,90.68
2023-03-17T05:31:47.982Z,91.19
2023-03-17T05:34:15.998Z,90.46
2023-03-17T05:36:44.634Z,89.82
2023-03-17T05:39:13.411Z,90.18
2023-03-17T05:41:41.628Z,90.03
2023-03-17T05:44:08.834Z,89.37
2023-03-17T05:46:36.428Z,89.07
2023-03-17T05:49:03.818Z,89.16
2023-03-17T05:51:31.607Z,88.46
2023-03-17T05:53:58.808Z,88.40
2023-03-17T05:56:27.277Z,87.57
2023-03-17T05:58:54.223Z,87.87
2023-03-17T06:01:21.298Z,87.36
2023-03-17T06:03:50.056Z,87.00
2023-03-17T06:06:17.248Z,85.84
2023-03-17T06:08:44.284Z,84.77
2023-03-17T06:11:11.801Z,84.45
2023-03-17T06:13:38.571Z,83.70
2023-03-17T06:16:06.138Z,82.16
2023-03-17T06:18:33.077Z,81.69
2023-03-17T06:21:00.345Z,81.00
2023-03-17T06:23:27.109Z,80.31
2023-03-17T06:25:54.417Z,79.28
2023-03-17T06:28:21.213Z,79.05
2023-03-17T06:30:48.422Z,78.67
2023-03-17T06:33:15.882Z,77.42
2023-03-17T06:35:43.060Z,76.50
2023-03-17T06:38:09.996Z,73.66
2023-03-17T06:40:37.180Z,72.74
2023-03-17T06:43:03.975Z,72.61
2023-03-17T06:45:33.137Z,71.42
2023-03-17T06:48:00.233Z,70.07
2023-03-17T06:50:27.463Z,69.40
2023-03-17T06:52:54.234Z,70.62
2023-03-17T06:55:21.597Z,70.92
2023-03-17T06:57:50.505Z,70.51
2023-03-17T07:00:19.581Z,69.32
2023-03-17T07:02:47.425Z,68.48
2023-03-17T07:05:14.732Z,68.49
2023-03-17T07:07:41.625Z,68.82
2023-03-17T07:10:10.461Z,67.08
2023-03-17T07:12:37.647Z,64.63
2023-03-17T07:15:05.464Z,64.45
2023-03-17T07:17:32.288Z,62.99
2023-03-17T07:19:59.564Z,62.52
2023-03-17T07:22:27.156Z,63.24
2023-03-17T07:24:54.368Z,59.46
2023-03-17T07:27:25.316Z,58.56
2023-03-17T07:29:52.906Z,58.52
2023-03-17T07:32:20.072Z,57.23
2023-03-17T07:34:47.144Z,57.16
2023-03-17T07:37:14.210Z,55.39
2023-03-17T07:39:42.019Z,54.51
2023-03-17T07:42:12.135Z,54.33
2023-03-17T07:44:41.529Z,54.78
2023-03-17T07:47:09.055Z,53.25
2023-03-17T07:49:41.801Z,51.95
2023-03-17T07:52:10.981Z,52.17
2023-03-17T07:54:42.239Z,51.17
2023-03-17T07:57:09.877Z,50.37
2023-03-17T07:59:38.334Z,48.43
2023-03-17T08:02:05.554Z,47.61
2023-03-17T08:04:32.793Z,50.08
2023-03-17T08:06:59.612Z,47.08
2023-03-17T08:09:27.208Z,46.53
2023-03-17T08:11:54.295Z,47.38
2023-03-17T08:14:21.594Z,45.65
2023-03-17T08:16:48.606Z,46.21
2023-03-17T08:19:16.311Z,44.14
2023-03-17T08:21:43.228Z,43.75
2023-03-17T08:24:10.968Z,43.43
2023-03-17T08:26:37.869Z,41.91
2023-03-17T08:29:05.263Z,42.07
2023-03-17T08:31:34.014Z,43.30
2023-03-17T08:34:02.774Z,42.42
2023-03-17T08:36:29.730Z,42.92
2023-03-17T08:38:56.807Z,42.20
2023-03-17T08:41:25.228Z,37.00
2023-03-17T08:43:52.486Z,37.44
2023-03-17T08:46:28.594Z,35.36
2023-03-17T08:48:56.916Z,35.63
2023-03-17T08:51:26.756Z,36.49
2023-03-17T08:53:54.986Z,36.39
2023-03-17T08:56:22.581Z,37.40
2023-03-17T08:58:50.821Z,35.17
2023-03-17T09:01:20.869Z,33.98
2023-03-17T09:03:48.391Z,34.84
2023-03-17T09:06:15.681Z,35.29
2023-03-17T09:08:47.753Z,34.90
2023-03-17T09:11:17.766Z,33.71
2023-03-17T09:13:49.610Z,33.83
2023-03-17T09:16:18.081Z,34.23
2023-03-17T09:18:46.994Z,33.42
2023-03-17T09:21:14.950Z,33.50
2023-03-17T09:23:42.593Z,34.17
2023-03-17T09:26:10.291Z,31.85
2023-03-17T09:28:37.449Z,34.47
2023-03-17T09:31:07.738Z,30.88
2023-03-17T09:33:35.009Z,29.83
2023-03-17T09:36:02.103Z,30.08
2023-03-17T09:38:29.899Z,29.80
2023-03-17T09:41:20.873Z,30.06
2023-03-17T09:44:20.026Z,32.53
2023-03-17T09:46:55.960Z,31.55
2023-03-17T09:49:42.620Z,30.27
2023-03-17T09:52:15.040Z,32.07
2023-03-17T09:54:42.794Z,30.44
2023-03-17T09:57:38.141Z,30.71
2023-03-17T10:00:16.013Z,30.24
2023-03-17T10:02:43.279Z,30.62
2023-03-17T10:05:17.417Z,28.39
2023-03-17T10:07:53.445Z,28.74
2023-03-17T10:10:34.877Z,28.91
2023-03-17T10:13:16.246Z,28.27
2023-03-17T10:16:28.482Z,29.76
2023-03-17T10:19:00.490Z,28.68
2023-03-17T10:21:32.126Z,28.26
2023-03-17T10:23:59.607Z,27.77
2023-03-17T10:26:32.856Z,28.24
2023-03-17T10:29:04.122Z,28.44
2023-03-17T10:31:34.829Z,28.89
2023-03-17T10:34:15.809Z,27.78
2023-03-17T10:36:47.051Z,27.02
2023-03-17T10:39:19.652Z,27.92
2023-03-17T10:42:09.107Z,27.08
2023-03-17T10:44:35.949Z,26.87
2023-03-17T10:47:03.713Z,27.44
2023-03-17T10:49:36.844Z,27.69
2023-03-17T10:52:08.071Z,25.84
2023-03-17T10:54:37.035Z,26.34
2023-03-17T10:57:08.206Z,26.51
2023-03-17T10:59:48.138Z,25.57
2023-03-17T11:02:30.597Z,26.40
2023-03-17T11:05:04.847Z,26.65
2023-03-17T11:07:40.684Z,25.59
2023-03-17T11:10:19.528Z,26.63
2023-03-17T11:12:52.980Z,26.38
2023-03-17T11:15:20.612Z,27.33
2023-03-17T11:17:53.672Z,26.93
2023-03-17T11:20:36.229Z,25.77
2023-03-17T11:23:37.495Z,24.33
2023-03-17T11:26:25.928Z,23.72
2023-03-17T11:29:27.273Z,23.48
2023-03-17T11:32:15.371Z,24.02
2023-03-17T11:35:06.565Z,24.89
2023-03-17T11:37:36.130Z,23.82
2023-03-17T11:40:19.536Z,25.29
2023-03-17T11:43:20.385Z,25.46
2023-03-17T11:45:58.189Z,25.75
2023-03-17T11:48:32.827Z,25.24
2023-03-17T11:51:16.223Z,25.37
2023-03-17T11:54:10.792Z,25.67
2023-03-17T11:56:59.906Z,24.72
2023-03-17T11:59:42.263Z,24.75
2023-03-17T12:02:36.978Z,24.17
2023-03-17T12:05:07.989Z,23.12
2023-03-17T12:07:55.432Z,23.87
2023-03-17T12:10:36.393Z,22.56
2023-03-17T12:13:22.075Z,22.36
2023-03-17T12:15:54.082Z,21.38
2023-03-17T12:18:24.061Z,20.90
2023-03-17T12:21:01.840Z,20.72
2023-03-17T12:23:38.257Z,20.27
2023-03-17T12:26:11.092Z,20.48
2023-03-17T12:28:52.351Z,20.28
2023-03-17T12:31:31.488Z,19.80
2023-03-17T12:34:16.251Z,19.97
2023-03-17T12:36:43.993Z,20.43
2023-03-17T12:39:16.348Z,20.43
2023-03-17T12:41:46.543Z,19.86
2023-03-17T12:44:39.250Z,19.45
2023-03-17T12:47:30.747Z,19.27
2023-03-17T12:50:19.781Z,18.38
2023-03-17T12:53:01.593Z,19.32
2023-03-17T12:55:32.220Z,18.71
2023-03-17T12:58:18.111Z,18.83
2023-03-17T13:01:10.181Z,18.85
2023-03-17T13:03:45.826Z,17.85
2023-03-17T13:06:20.844Z,18.38
2023-03-17T13:08:52.044Z,19.11
2023-03-17T13:11:26.143Z,19.59
2023-03-17T13:14:08.613Z,18.66
2023-03-17T13:16:41.229Z,18.73
2023-03-17T13:19:17.394Z,19.17
2023-03-17T13:21:49.982Z,19.74
2023-03-17T13:24:16.940Z,19.22
2023-03-17T13:27:04.571Z,19.82
2023-03-17T13:29:34.859Z,19.74
2023-03-17T13:32:17.194Z,19.70
2023-03-17T13:35:16.742Z,18.94
2023-03-17T13:38:13.100Z,19.46
2023-03-17T13:40:48.315Z,20.64
2023-03-17T13:43:49.297Z,20.27
2023-03-17T13:46:34.612Z,21.42
2023-03-17T13:49:30.042Z,21.98
2023-03-17T13:52:17.597Z,22.73
2023-03-17T13:55:02.107Z,23.75
2023-03-17T13:57:30.611Z,25.64
2023-03-17T14:00:24.460Z,25.81
2023-03-17T14:03:20.253Z,26.60
2023-03-17T14:05:50.303Z,26.23
2023-03-17T14:08:39.157Z,26.21
2023-03-17T14:11:27.629Z,27.32
2023-03-17T14:14:32.007Z,27.81
2023-03-17T14:17:57.492Z,27.11
2023-03-17T14:20:27.066Z,27.44
2023-03-17T14:22:58.913Z,27.59
2023-03-17T14:25:44.579Z,27.81
2023-03-17T14:28:16.663Z,28.48
2023-03-17T14:30:52.764Z,28.86
2023-03-17T14:33:28.580Z,27.74
2023-03-17T14:36:04.365Z,27.46
2023-03-17T14:38:34.140Z,27.31
2023-03-17T14:41:08.508Z,27.67
2023-03-17T14:43:36.629Z,27.60
2023-03-17T14:46:06.155Z,27.69
2023-03-17T14:48:37.071Z,28.46
2023-03-17T14:51:08.265Z,28.19
2023-03-17T14:53:44.922Z,27.39
2023-03-17T14:56:13.004Z,27.94
2023-03-17T14:58:43.046Z,26.53
2023-03-17T15:01:17.966Z,25.86
2023-03-17T15:04:05.089Z,25.44
2023-03-17T15:06:34.074Z,24.09
2023-03-17T15:09:18.252Z,21.97
2023-03-17T15:11:46.802Z,20.63
2023-03-17T15:14:24.109Z,19.20
2023-03-17T15:16:52.636Z,18.68
2023-03-17T15:19:25.842Z,19.00
2023-03-17T15:21:59.673Z,20.06
2023-03-17T15:24:26.721Z,19.82
2023-03-17T15:27:06.111Z,19.86
2023-03-17T15:29:33.578Z,19.55
2023-03-17T15:32:09.315Z,20.65
2023-03-17T15:34:36.544Z,19.92
2023-03-17T15:37:03.491Z,20.52
2023-03-17T15:39:30.541Z,21.21
2023-03-17T15:41:57.322Z,19.73
2023-03-17T15:44:24.377Z,19.79
2023-03-17T15:46:51.229Z,22.24
2023-03-17T15:49:18.295Z,22.29
2023-03-17T15:51:48.102Z,23.57
2023-03-17T15:54:15.546Z,24.99
2023-03-17T15:56:43.258Z,26.36
2023-03-17T15:59:12.093Z,27.28
2023-03-17T16:01:39.581Z,27.46
2023-03-17T16:04:07.157Z,27.84
2023-03-17T16:06:34.802Z,27.97
2023-03-17T16:09:02.082Z,28.63
2023-03-17T16:11:31.351Z,28.59
2023-03-17T16:14:00.089Z,28.40
2023-03-17T16:16:43.423Z,29.12
2023-03-17T16:19:20.151Z,29.38
2023-03-17T16:21:47.438Z,29.58
2023-03-17T16:24:24.128Z,30.92
2023-03-17T16:26:51.572Z,30.81
2023-03-17T16:29:20.456Z,30.08
2023-03-17T16:31:49.600Z,30.40
2023-03-17T16:34:21.819Z,30.90
2023-03-17T16:36:50.435Z,31.20
2023-03-17T16:39:19.841Z,31.36
2023-03-17T16:41:48.160Z,31.70
2023-03-17T16:44:18.472Z,31.93
2023-03-17T16:46:45.821Z,32.38
2023-03-17T16:49:20.383Z,32.47
2023-03-17T16:51:49.400Z,33.43
2023-03-17T16:54:17.224Z,33.95
2023-03-17T16:56:45.168Z,33.55
2023-03-17T16:59:20.373Z,33.90
2023-03-17T17:01:47.253Z,34.04
2023-03-17T17:04:14.390Z,34.49
2023-03-17T17:06:41.251Z,34.60
2023-03-17T17:09:08.383Z,34.77
2023-03-17T17:11:35.347Z,34.92
2023-03-17T17:14:03.624Z,35.51
2023-03-17T17:16:35.425Z,35.65
2023-03-17T17:19:03.700Z,35.79
2023-03-17T17:21:32.036Z,35.87
2023-03-17T17:24:00.442Z,35.61
2023-03-17T17:26:27.266Z,35.82
2023-03-17T17:28:54.460Z,36.23
2023-03-17T17:31:21.289Z,36.13
2023-03-17T17:33:48.540Z,36.86
2023-03-17T17:36:17.053Z,36.49
2023-03-17T17:38:44.695Z,36.92
2023-03-17T17:41:12.395Z,37.00
2023-03-17T17:43:40.257Z,37.05
2023-03-17T17:46:12.615Z,37.08
2023-03-17T17:48:39.909Z,37.36
2023-03-17T17:51:06.913Z,38.46
2023-03-17T17:53:34.044Z,38.42
2023-03-17T17:56:01.142Z,38.68
2023-03-17T17:58:28.424Z,39.13
2023-03-17T18:00:57.169Z,39.54
2023-03-17T18:03:25.927Z,39.54
2023-03-17T18:05:56.755Z,40.00
2023-03-17T18:08:24.623Z,40.13
2023-03-17T18:10:52.608Z,40.54
2023-03-17T18:13:19.708Z,40.58
2023-03-17T18:15:46.876Z,40.34
2023-03-17T18:18:14.049Z,40.86
2023-03-17T18:20:41.019Z,40.92
2023-03-17T18:23:08.344Z,40.65
2023-03-17T18:25:35.717Z,40.39
2023-03-17T18:28:03.397Z,40.84
2023-03-17T18:30:34.787Z,40.91
2023-03-17T18:33:16.463Z,41.11
2023-03-17T18:35:45.566Z,40.35
2023-03-17T18:38:12.843Z,40.63
2023-03-17T18:40:41.373Z,40.79
2023-03-17T18:43:08.403Z,41.47
2023-03-17T18:45:35.333Z,41.19
2023-03-17T18:48:02.527Z,41.45
2023-03-17T18:50:29.683Z,42.23
2023-03-17T18:52:57.295Z,42.42
2023-03-17T18:55:24.402Z,42.69
2023-03-17T18:57:51.934Z,43.73
2023-03-17T19:00:19.017Z,43.47
2023-03-17T19:02:46.906Z,42.90
2023-03-17T19:05:14.367Z,43.59
2023-03-17T19:07:41.961Z,43.23
2023-03-17T19:10:10.898Z,43.79
2023-03-17T19:12:38.310Z,43.90
2023-03-17T19:15:06.450Z,43.80
2023-03-17T19:17:33.801Z,43.80
2023-03-17T19:20:01.047Z,43.81
2023-03-17T19:22:28.205Z,43.85
2023-03-17T19:24:54.985Z,44.23
2023-03-17T19:27:22.250Z,44.36
2023-03-17T19:29:49.084Z,43.79
2023-03-17T19:32:17.228Z,44.82
2023-03-17T19:34:44.108Z,44.81
2023-03-17T19:37:11.185Z,44.36
2023-03-17T19:39:37.959Z,45.42
2023-03-17T19:42:05.176Z,45.66
2023-03-17T19:44:31.980Z,45.02
2023-03-17T19:47:01.620Z,45.35
2023-03-17T19:49:28.637Z,45.25
2023-03-17T19:51:56.486Z,45.20
2023-03-17T19:54:23.533Z,45.41
2023-03-17T19:56:51.012Z,45.85
2023-03-17T19:59:19.761Z,45.94
2023-03-17T20:01:48.736Z,45.88
2023-03-17T20:04:19.572Z,45.97
2023-03-17T20:06:47.045Z,46.65
2023-03-17T20:09:14.609Z,46.47
2023-03-17T20:11:44.606Z,46.73
2023-03-17T20:14:11.500Z,47.28
2023-03-17T20:16:39.821Z,47.38
2023-03-17T20:19:08.309Z,47.69
2023-03-17T20:21:35.869Z,47.70
2023-03-17T20:24:03.467Z,47.72
2023-03-17T20:26:30.563Z,47.84
2023-03-17T20:28:57.515Z,49.25
2023-03-17T20:31:25.407Z,48.81
2023-03-17T20:33:52.283Z,50.68
2023-03-17T20:36:19.559Z,50.91
2023-03-17T20:38:46.710Z,50.68
2023-03-17T20:41:17.238Z,52.09
2023-03-17T20:43:45.297Z,52.98
2023-03-17T20:46:18.715Z,52.28
2023-03-17T20:48:48.822Z,53.42
2023-03-17T20:51:16.751Z,53.09
2023-03-17T20:53:46.347Z,52.73
2023-03-17T20:56:16.664Z,53.33
2023-03-17T20:58:45.411Z,54.81
2023-03-17T21:01:14.108Z,54.23
2023-03-17T21:03:42.471Z,54.52
2023-03-17T21:06:10.609Z,54.79
2023-03-17T21:08:38.739Z,54.91
2023-03-17T21:11:08.066Z,56.36
2023-03-17T21:13:35.601Z,56.72
2023-03-17T21:16:02.920Z,57.00
2023-03-17T21:18:30.110Z,57.35
2023-03-17T21:20:57.287Z,56.61
2023-03-17T21:23:24.093Z,57.19
2023-03-17T21:25:56.058Z,57.38
2023-03-17T21:28:26.333Z,56.83
2023-03-17T21:30:53.651Z,57.84
2023-03-17T21:33:23.577Z,57.86
2023-03-17T21:35:50.949Z,57.98
2023-03-17T21:38:17.969Z,57.38
2023-03-17T21:40:45.665Z,58.09
2023-03-17T21:43:13.484Z,59.67
2023-03-17T21:45:42.057Z,59.27
2023-03-17T21:48:08.978Z,59.34
2023-03-17T21:50:37.144Z,59.56
2023-03-17T21:53:04.822Z,60.46
2023-03-17T21:55:31.940Z,60.74
2023-03-17T21:57:59.126Z,60.46
2023-03-17T22:00:30.956Z,60.27
2023-03-17T22:03:02.706Z,61.14
2023-03-17T22:05:30.719Z,61.04
2023-03-17T22:07:57.802Z,61.04
2023-03-17T22:10:24.889Z,61.58
2023-03-17T22:12:52.063Z,61.06
2023-03-17T22:15:19.824Z,61.73
2023-03-17T22:17:47.182Z,60.72
2023-03-17T22:20:14.349Z,61.82
2023-03-17T22:22:41.138Z,61.95
2023-03-17T22:25:08.655Z,61.16
2023-03-17T22:27:35.746Z,61.95
2023-03-17T22:30:02.966Z,64.07
2023-03-17T22:32:29.900Z,63.25
2023-03-17T22:34:57.026Z,63.98
2023-03-17T22:37:24.703Z,64.75
2023-03-17T22:39:52.247Z,63.55
2023-03-17T22:42:19.139Z,63.17
2023-03-17T22:44:46.303Z,64.06
2023-03-17T22:47:13.134Z,62.61
2023-03-17T22:49:43.633Z,64.18
2023-03-17T22:52:10.861Z,63.97
2023-03-17T22:54:37.940Z,64.66
2023-03-17T22:57:05.694Z,65.40
2023-03-17T22:59:33.183Z,65.96
2023-03-17T23:02:00.162Z,65.73
2023-03-17T23:04:27.289Z,66.48
2023-03-17T23:06:54.206Z,66.31
2023-03-17T23:09:21.328Z,67.16
2023-03-17T23:11:48.179Z,67.73
2023-03-17T23:14:15.445Z,67.58
2023-03-17T23:16:43.062Z,68.05
2023-03-17T23:19:10.694Z,67.56
2023-03-17T23:21:39.296Z,69.04
2023-03-17T23:24:07.872Z,68.45
2023-03-17T23:26:36.944Z,68.63
2023-03-17T23:29:05.924Z,67.53
2023-03-17T23:31:34.118Z,69.01
2023-03-17T23:34:01.221Z,69.03
2023-03-17T23:36:28.323Z,68.42
2023-03-17T23:38:55.560Z,68.86
2023-03-17T23:41:22.746Z,67.56
2023-03-17T23:43:49.914Z,68.43
2023-03-17T23:46:17.770Z,69.64
2023-03-17T23:48:45.009Z,68.73
2023-03-17T23:51:12.890Z,68.66
2023-03-17T23:53:40.302Z,69.52
2023-03-17T23:56:07.965Z,68.67
2023-03-17T23:58:35.048Z,69.44
